sensor_id;sensor_type;location;lat;lon;timestamp;pressure;altitude;pressure_sealevel;temperature;humidity
61039;BME280;46919;45.816;3.104;2022-07-23T00:00:26;97991.38;;;24.07;67.06
61039;BME280;46919;45.816;3.104;2022-07-23T00:02:52;97992.59;;;24.01;67.57
61039;BME280;46919;45.816;3.104;2022-07-23T00:05:17;97990.59;;;23.93;67.95
61039;BME280;46919;45.816;3.104;2022-07-23T00:07:43;97991.22;;;23.90;67.87
61039;BME280;46919;45.816;3.104;2022-07-23T00:10:09;97991.22;;;23.90;67.76
61039;BME280;46919;45.816;3.104;2022-07-23T00:12:35;97996.31;;;23.82;68.06
61039;BME280;46919;45.816;3.104;2022-07-23T00:15:01;98003.25;;;23.80;68.29
61039;BME280;46919;45.816;3.104;2022-07-23T00:17:27;97994.97;;;23.80;67.89
61039;BME280;46919;45.816;3.104;2022-07-23T00:19:52;97991.91;;;23.81;67.83
61039;BME280;46919;45.816;3.104;2022-07-23T00:22:19;97998.34;;;23.77;67.64
61039;BME280;46919;45.816;3.104;2022-07-23T00:24:44;97993.47;;;23.74;67.79
61039;BME280;46919;45.816;3.104;2022-07-23T00:27:09;97985.19;;;23.74;67.78
61039;BME280;46919;45.816;3.104;2022-07-23T00:29:36;97988.56;;;23.70;67.50
61039;BME280;46919;45.816;3.104;2022-07-23T00:32:01;97990.81;;;23.68;67.84
61039;BME280;46919;45.816;3.104;2022-07-23T00:34:27;97985.09;;;23.65;67.46
61039;BME280;46919;45.816;3.104;2022-07-23T00:36:52;97991.72;;;23.64;67.48
61039;BME280;46919;45.816;3.104;2022-07-23T00:39:19;97987.13;;;23.59;67.54
61039;BME280;46919;45.816;3.104;2022-07-23T00:41:46;97983.25;;;23.60;67.65
61039;BME280;46919;45.816;3.104;2022-07-23T00:44:20;97983.88;;;23.57;67.37
61039;BME280;46919;45.816;3.104;2022-07-23T00:46:55;97990.19;;;23.58;67.20
61039;BME280;46919;45.816;3.104;2022-07-23T00:49:23;97983.34;;;23.55;67.54
61039;BME280;46919;45.816;3.104;2022-07-23T00:51:49;97988.88;;;23.55;67.21
61039;BME280;46919;45.816;3.104;2022-07-23T00:54:16;97988.06;;;23.55;67.65
61039;BME280;46919;45.816;3.104;2022-07-23T00:56:43;97988.16;;;23.49;67.63
61039;BME280;46919;45.816;3.104;2022-07-23T00:59:09;97992.88;;;23.49;67.67
61039;BME280;46919;45.816;3.104;2022-07-23T01:01:35;97986.84;;;23.47;67.39
61039;BME280;46919;45.816;3.104;2022-07-23T01:04:01;97989.09;;;23.45;67.54
61039;BME280;46919;45.816;3.104;2022-07-23T01:06:26;97998.78;;;23.42;67.19
61039;BME280;46919;45.816;3.104;2022-07-23T01:08:54;97994.78;;;23.34;67.07
61039;BME280;46919;45.816;3.104;2022-07-23T01:11:20;97992.69;;;23.31;67.73
61039;BME280;46919;45.816;3.104;2022-07-23T01:13:46;97985.50;;;23.30;67.45
61039;BME280;46919;45.816;3.104;2022-07-23T01:16:12;97989.28;;;23.34;67.00
61039;BME280;46919;45.816;3.104;2022-07-23T01:18:38;97987.44;;;23.44;67.13
61039;BME280;46919;45.816;3.104;2022-07-23T01:21:03;97990.63;;;23.37;66.94
61039;BME280;46919;45.816;3.104;2022-07-23T01:23:29;97988.78;;;23.32;66.77
61039;BME280;46919;45.816;3.104;2022-07-23T01:25:55;98003.91;;;23.35;66.86
61039;BME280;46919;45.816;3.104;2022-07-23T01:28:21;97996.53;;;23.30;66.80
61039;BME280;46919;45.816;3.104;2022-07-23T01:30:47;98005.44;;;23.27;66.69
61039;BME280;46919;45.816;3.104;2022-07-23T01:33:12;98007.25;;;23.18;67.35
61039;BME280;46919;45.816;3.104;2022-07-23T01:35:40;98010.63;;;23.15;67.24
61039;BME280;46919;45.816;3.104;2022-07-23T01:38:05;98003.16;;;23.15;67.44
61039;BME280;46919;45.816;3.104;2022-07-23T01:40:30;98015.22;;;23.20;67.11
61039;BME280;46919;45.816;3.104;2022-07-23T01:42:56;98015.41;;;23.23;66.98
61039;BME280;46919;45.816;3.104;2022-07-23T01:45:22;98013.28;;;23.20;66.75
61039;BME280;46919;45.816;3.104;2022-07-23T01:47:48;98014.31;;;23.24;66.77
61039;BME280;46919;45.816;3.104;2022-07-23T01:50:13;98012.06;;;23.26;66.01
61039;BME280;46919;45.816;3.104;2022-07-23T01:52:38;98007.69;;;23.25;66.02
61039;BME280;46919;45.816;3.104;2022-07-23T01:55:04;98016.75;;;23.26;66.03
61039;BME280;46919;45.816;3.104;2022-07-23T01:57:31;98012.06;;;23.26;66.14
61039;BME280;46919;45.816;3.104;2022-07-23T01:59:57;98013.91;;;23.31;65.81
61039;BME280;46919;45.816;3.104;2022-07-23T02:02:22;98012.66;;;23.23;66.03
61039;BME280;46919;45.816;3.104;2022-07-23T02:04:48;98001.03;;;23.26;66.16
61039;BME280;46919;45.816;3.104;2022-07-23T02:07:13;98003.28;;;23.24;66.42
61039;BME280;46919;45.816;3.104;2022-07-23T02:09:38;98011.25;;;23.26;66.48
61039;BME280;46919;45.816;3.104;2022-07-23T02:12:04;98012.16;;;23.21;67.01
61039;BME280;46919;45.816;3.104;2022-07-23T02:14:30;98003.69;;;23.18;67.41
61039;BME280;46919;45.816;3.104;2022-07-23T02:16:55;98015.34;;;23.28;67.74
61039;BME280;46919;45.816;3.104;2022-07-23T02:19:21;98016.25;;;23.38;67.28
61039;BME280;46919;45.816;3.104;2022-07-23T02:21:46;98020.25;;;23.31;67.14
61039;BME280;46919;45.816;3.104;2022-07-23T02:24:12;98020.22;;;23.18;67.81
61039;BME280;46919;45.816;3.104;2022-07-23T02:26:37;98015.53;;;23.18;67.92
61039;BME280;46919;45.816;3.104;2022-07-23T02:29:03;98016.34;;;23.19;68.02
61039;BME280;46919;45.816;3.104;2022-07-23T02:31:29;98015.03;;;23.16;68.08
61039;BME280;46919;45.816;3.104;2022-07-23T02:33:55;98015.13;;;23.11;67.80
61039;BME280;46919;45.816;3.104;2022-07-23T02:36:21;98013.19;;;23.11;69.08
61039;BME280;46919;45.816;3.104;2022-07-23T02:38:47;98013.19;;;23.25;68.58
61039;BME280;46919;45.816;3.104;2022-07-23T02:41:12;98012.06;;;23.26;68.12
61039;BME280;46919;45.816;3.104;2022-07-23T02:43:38;98011.06;;;23.22;68.08
61039;BME280;46919;45.816;3.104;2022-07-23T02:46:03;98008.97;;;23.14;68.40
61039;BME280;46919;45.816;3.104;2022-07-23T02:48:30;97995.66;;;23.02;67.87
61039;BME280;46919;45.816;3.104;2022-07-23T02:50:55;98009.16;;;23.04;67.53
61039;BME280;46919;45.816;3.104;2022-07-23T02:53:22;98008.53;;;23.07;66.61
61039;BME280;46919;45.816;3.104;2022-07-23T02:55:48;98010.16;;;22.94;66.91
61039;BME280;46919;45.816;3.104;2022-07-23T02:58:13;98015.47;;;22.90;66.30
61039;BME280;46919;45.816;3.104;2022-07-23T03:00:39;98014.13;;;22.88;66.02
61039;BME280;46919;45.816;3.104;2022-07-23T03:03:04;98011.34;;;22.88;65.69
61039;BME280;46919;45.816;3.104;2022-07-23T03:05:29;98010.75;;;22.91;65.44
61039;BME280;46919;45.816;3.104;2022-07-23T03:07:55;98016.56;;;22.89;65.62
61039;BME280;46919;45.816;3.104;2022-07-23T03:10:20;98024.09;;;22.84;65.69
61039;BME280;46919;45.816;3.104;2022-07-23T03:12:45;98024.28;;;22.73;65.58
61039;BME280;46919;45.816;3.104;2022-07-23T03:15:11;98019.06;;;22.72;64.95
61039;BME280;46919;45.816;3.104;2022-07-23T03:17:36;98021.31;;;22.70;65.09
61039;BME280;46919;45.816;3.104;2022-07-23T03:20:02;98025.88;;;22.60;64.64
61039;BME280;46919;45.816;3.104;2022-07-23T03:22:27;98025.97;;;22.55;64.92
61039;BME280;46919;45.816;3.104;2022-07-23T03:24:53;98033.59;;;22.58;65.06
61039;BME280;46919;45.816;3.104;2022-07-23T03:27:19;98022.06;;;22.56;64.85
61039;BME280;46919;45.816;3.104;2022-07-23T03:29:45;98029.22;;;22.57;64.99
61039;BME280;46919;45.816;3.104;2022-07-23T03:32:10;98025.97;;;22.55;65.30
61039;BME280;46919;45.816;3.104;2022-07-23T03:34:36;98020.22;;;22.52;65.55
61039;BME280;46919;45.816;3.104;2022-07-23T03:37:01;98028.78;;;22.50;65.08
61039;BME280;46919;45.816;3.104;2022-07-23T03:39:27;98027.31;;;22.39;65.39
61039;BME280;46919;45.816;3.104;2022-07-23T03:41:52;98036.16;;;22.36;65.48
61039;BME280;46919;45.816;3.104;2022-07-23T03:44:17;98030.66;;;22.36;65.23
61039;BME280;46919;45.816;3.104;2022-07-23T03:46:43;98035.16;;;22.26;65.61
61039;BME280;46919;45.816;3.104;2022-07-23T03:49:09;98027.19;;;22.30;65.17
61039;BME280;46919;45.816;3.104;2022-07-23T03:51:34;98042.47;;;22.17;65.18
61039;BME280;46919;45.816;3.104;2022-07-23T03:53:59;98038.16;;;22.11;65.50
61039;BME280;46919;45.816;3.104;2022-07-23T03:56:25;98036.72;;;22.14;65.40
61039;BME280;46919;45.816;3.104;2022-07-23T03:58:51;98034.50;;;22.16;65.69
61039;BME280;46919;45.816;3.104;2022-07-23T04:01:17;98033.69;;;22.15;65.46
61039;BME280;46919;45.816;3.104;2022-07-23T04:03:42;98037.19;;;22.02;65.65
61039;BME280;46919;45.816;3.104;2022-07-23T04:06:07;98047.13;;;21.98;66.15
61039;BME280;46919;45.816;3.104;2022-07-23T04:08:33;98034.22;;;21.98;65.89
61039;BME280;46919;45.816;3.104;2022-07-23T04:10:58;98038.44;;;22.10;66.03
61039;BME280;46919;45.816;3.104;2022-07-23T04:13:24;98040.91;;;22.11;65.65
61039;BME280;46919;45.816;3.104;2022-07-23T04:15:49;98042.00;;;22.10;65.75
61039;BME280;46919;45.816;3.104;2022-07-23T04:18:16;98037.91;;;22.07;65.70
61039;BME280;46919;45.816;3.104;2022-07-23T04:20:43;98034.13;;;22.03;64.90
61039;BME280;46919;45.816;3.104;2022-07-23T04:23:08;98040.44;;;22.04;64.93
61039;BME280;46919;45.816;3.104;2022-07-23T04:25:35;98047.13;;;21.98;64.72
61039;BME280;46919;45.816;3.104;2022-07-23T04:28:00;98036.34;;;22.01;64.94
61039;BME280;46919;45.816;3.104;2022-07-23T04:30:26;98045.44;;;22.02;64.46
61039;BME280;46919;45.816;3.104;2022-07-23T04:32:51;98053.09;;;22.05;64.47
61039;BME280;46919;45.816;3.104;2022-07-23T04:35:17;98049.81;;;22.03;64.12
61039;BME280;46919;45.816;3.104;2022-07-23T04:37:42;98057.31;;;21.97;64.91
61039;BME280;46919;45.816;3.104;2022-07-23T04:40:08;98055.09;;;21.99;64.26
61039;BME280;46919;45.816;3.104;2022-07-23T04:42:34;98063.50;;;21.89;64.39
61039;BME280;46919;45.816;3.104;2022-07-23T04:44:59;98069.59;;;21.86;64.43
61039;BME280;46919;45.816;3.104;2022-07-23T04:47:24;98070.47;;;21.81;64.29
61039;BME280;46919;45.816;3.104;2022-07-23T04:49:50;98070.56;;;21.71;64.23
61039;BME280;46919;45.816;3.104;2022-07-23T04:52:15;98080.44;;;21.48;64.56
61039;BME280;46919;45.816;3.104;2022-07-23T04:54:41;98073.06;;;21.43;64.80
61039;BME280;46919;45.816;3.104;2022-07-23T04:57:06;98074.69;;;21.44;64.50
61039;BME280;46919;45.816;3.104;2022-07-23T04:59:31;98071.41;;;21.42;64.04
61039;BME280;46919;45.816;3.104;2022-07-23T05:01:57;98073.06;;;21.43;64.15
61039;BME280;46919;45.816;3.104;2022-07-23T05:04:22;98077.69;;;21.48;63.99
61039;BME280;46919;45.816;3.104;2022-07-23T05:06:48;98070.84;;;21.45;63.50
61039;BME280;46919;45.816;3.104;2022-07-23T05:09:13;98077.50;;;21.39;62.95
61039;BME280;46919;45.816;3.104;2022-07-23T05:11:38;98078.06;;;21.36;63.08
61039;BME280;46919;45.816;3.104;2022-07-23T05:14:04;98081.81;;;21.21;62.90
61039;BME280;46919;45.816;3.104;2022-07-23T05:16:29;98086.69;;;21.00;62.97
61039;BME280;46919;45.816;3.104;2022-07-23T05:18:54;98089.16;;;21.02;62.40
61039;BME280;46919;45.816;3.104;2022-07-23T05:21:20;98086.34;;;21.07;62.69
61039;BME280;46919;45.816;3.104;2022-07-23T05:23:45;98092.66;;;21.07;62.33
61039;BME280;46919;45.816;3.104;2022-07-23T05:26:11;98094.06;;;21.05;63.15
61039;BME280;46919;45.816;3.104;2022-07-23T05:28:36;98087.09;;;21.12;62.17
61039;BME280;46919;45.816;3.104;2022-07-23T05:31:02;98092.56;;;21.17;61.63
61039;BME280;46919;45.816;3.104;2022-07-23T05:33:29;98095.97;;;21.04;61.27
61039;BME280;46919;45.816;3.104;2022-07-23T05:36:00;98093.50;;;21.03;61.62
61039;BME280;46919;45.816;3.104;2022-07-23T05:38:26;98097.63;;;21.05;61.55
61039;BME280;46919;45.816;3.104;2022-07-23T05:40:52;98107.00;;;20.99;61.96
61039;BME280;46919;45.816;3.104;2022-07-23T05:43:17;98098.72;;;21.04;61.56
61039;BME280;46919;45.816;3.104;2022-07-23T05:45:43;98094.25;;;21.13;61.38
61039;BME280;46919;45.816;3.104;2022-07-23T05:48:08;98100.03;;;21.12;61.04
61039;BME280;46919;45.816;3.104;2022-07-23T05:50:34;98099.16;;;21.16;60.67
61039;BME280;46919;45.816;3.104;2022-07-23T05:52:59;98105.03;;;21.34;60.47
61039;BME280;46919;45.816;3.104;2022-07-23T05:55:24;98108.94;;;21.28;60.51
61039;BME280;46919;45.816;3.104;2022-07-23T05:57:50;98102.66;;;21.27;60.12
61039;BME280;46919;45.816;3.104;2022-07-23T06:00:15;98108.28;;;21.41;59.52
61039;BME280;46919;45.816;3.104;2022-07-23T06:02:41;98104.63;;;21.46;59.45
61039;BME280;46919;45.816;3.104;2022-07-23T06:05:07;98111.25;;;21.50;58.59
61039;BME280;46919;45.816;3.104;2022-07-23T06:07:33;98114.88;;;21.40;57.94
61039;BME280;46919;45.816;3.104;2022-07-23T06:09:58;98115.19;;;21.39;57.81
61039;BME280;46919;45.816;3.104;2022-07-23T06:12:24;98120.31;;;21.45;57.82
61039;BME280;46919;45.816;3.104;2022-07-23T06:14:50;98120.38;;;21.40;58.17
61039;BME280;46919;45.816;3.104;2022-07-23T06:17:17;98115.41;;;21.42;57.93
61039;BME280;46919;45.816;3.104;2022-07-23T06:19:43;98110.13;;;21.46;57.58
61039;BME280;46919;45.816;3.104;2022-07-23T06:22:08;98115.09;;;21.49;58.45
61039;BME280;46919;45.816;3.104;2022-07-23T06:24:34;98121.31;;;21.60;58.09
61039;BME280;46919;45.816;3.104;2022-07-23T06:26:59;98127.28;;;21.67;59.55
61039;BME280;46919;45.816;3.104;2022-07-23T06:29:24;98132.66;;;21.77;59.93
61039;BME280;46919;45.816;3.104;2022-07-23T06:31:50;98139.47;;;21.61;58.48
61039;BME280;46919;45.816;3.104;2022-07-23T06:34:15;98133.47;;;21.53;58.10
61039;BME280;46919;45.816;3.104;2022-07-23T06:36:41;98135.44;;;21.48;58.75
61039;BME280;46919;45.816;3.104;2022-07-23T06:39:06;98130.22;;;21.46;59.13
61039;BME280;46919;45.816;3.104;2022-07-23T06:41:32;98140.38;;;21.51;59.74
61039;BME280;46919;45.816;3.104;2022-07-23T06:44:00;98140.69;;;21.49;59.37
61039;BME280;46919;45.816;3.104;2022-07-23T06:46:25;98133.31;;;21.40;58.54
61039;BME280;46919;45.816;3.104;2022-07-23T06:48:51;98132.03;;;21.32;58.07
61039;BME280;46919;45.816;3.104;2022-07-23T06:51:16;98130.31;;;21.36;57.65
61039;BME280;46919;45.816;3.104;2022-07-23T06:53:42;98134.47;;;21.33;58.49
61039;BME280;46919;45.816;3.104;2022-07-23T06:56:07;98139.56;;;21.50;60.20
61039;BME280;46919;45.816;3.104;2022-07-23T06:58:33;98132.88;;;21.57;58.63
61039;BME280;46919;45.816;3.104;2022-07-23T07:00:58;98137.53;;;21.61;57.41
61039;BME280;46919;45.816;3.104;2022-07-23T07:03:24;98140.22;;;21.66;56.63
61039;BME280;46919;45.816;3.104;2022-07-23T07:05:49;98140.41;;;21.75;56.26
61039;BME280;46919;45.816;3.104;2022-07-23T07:08:15;98153.56;;;21.78;56.09
61039;BME280;46919;45.816;3.104;2022-07-23T07:10:40;98147.78;;;21.80;55.28
61039;BME280;46919;45.816;3.104;2022-07-23T07:13:06;98146.38;;;21.82;55.72
61039;BME280;46919;45.816;3.104;2022-07-23T07:15:32;98149.53;;;21.95;56.00
61039;BME280;46919;45.816;3.104;2022-07-23T07:17:57;98143.50;;;21.93;54.33
61039;BME280;46919;45.816;3.104;2022-07-23T07:20:23;98154.44;;;21.98;56.63
61039;BME280;46919;45.816;3.104;2022-07-23T07:22:49;98157.38;;;22.06;54.68
61039;BME280;46919;45.816;3.104;2022-07-23T07:25:14;98156.91;;;21.99;53.70
61039;BME280;46919;45.816;3.104;2022-07-23T07:27:40;98158.38;;;21.92;53.92
61039;BME280;46919;45.816;3.104;2022-07-23T07:30:06;98154.34;;;22.08;53.79
61039;BME280;46919;45.816;3.104;2022-07-23T07:32:32;98150.88;;;22.21;53.16
61039;BME280;46919;45.816;3.104;2022-07-23T07:34:58;98152.34;;;22.38;53.31
61039;BME280;46919;45.816;3.104;2022-07-23T07:37:24;98152.88;;;22.59;54.42
61039;BME280;46919;45.816;3.104;2022-07-23T07:39:50;98157.41;;;22.69;53.20
61039;BME280;46919;45.816;3.104;2022-07-23T07:42:16;98155.94;;;22.57;52.12
61039;BME280;46919;45.816;3.104;2022-07-23T07:44:41;98159.88;;;22.51;52.95
61039;BME280;46919;45.816;3.104;2022-07-23T07:47:06;98167.63;;;22.49;52.28
61039;BME280;46919;45.816;3.104;2022-07-23T07:49:33;98168.50;;;22.45;52.22
61039;BME280;46919;45.816;3.104;2022-07-23T07:51:58;98170.97;;;22.46;52.00
61039;BME280;46919;45.816;3.104;2022-07-23T07:54:24;98171.88;;;22.60;52.15
61039;BME280;46919;45.816;3.104;2022-07-23T07:56:49;98171.72;;;22.71;52.81
61039;BME280;46919;45.816;3.104;2022-07-23T07:59:14;98175.34;;;22.85;52.51
61039;BME280;46919;45.816;3.104;2022-07-23T08:01:40;98180.81;;;22.90;52.47
61039;BME280;46919;45.816;3.104;2022-07-23T08:04:06;98177.97;;;22.95;52.37
61039;BME280;46919;45.816;3.104;2022-07-23T08:06:31;98171.03;;;22.79;51.06
61039;BME280;46919;45.816;3.104;2022-07-23T08:08:56;98168.66;;;22.53;52.22
61039;BME280;46919;45.816;3.104;2022-07-23T08:11:22;98176.31;;;22.56;52.89
61039;BME280;46919;45.816;3.104;2022-07-23T08:13:48;98174.47;;;22.71;51.65
61039;BME280;46919;45.816;3.104;2022-07-23T08:16:13;98191.97;;;22.80;51.67
61039;BME280;46919;45.816;3.104;2022-07-23T08:18:38;98189.09;;;22.90;51.73
61039;BME280;46919;45.816;3.104;2022-07-23T08:21:04;98188.81;;;23.06;51.66
61039;BME280;46919;45.816;3.104;2022-07-23T08:23:31;98193.91;;;23.37;51.02
61039;BME280;46919;45.816;3.104;2022-07-23T08:25:57;98187.25;;;23.38;50.34
61039;BME280;46919;45.816;3.104;2022-07-23T08:28:24;98187.38;;;23.46;50.06
61039;BME280;46919;45.816;3.104;2022-07-23T08:30:50;98191.00;;;23.61;50.02
61039;BME280;46919;45.816;3.104;2022-07-23T08:33:17;98195.56;;;23.84;49.39
61039;BME280;46919;45.816;3.104;2022-07-23T08:35:48;98190.88;;;23.66;49.38
61039;BME280;46919;45.816;3.104;2022-07-23T08:38:16;98201.28;;;23.55;50.01
61039;BME280;46919;45.816;3.104;2022-07-23T08:40:52;98197.91;;;23.58;50.22
61039;BME280;46919;45.816;3.104;2022-07-23T08:43:28;98203.44;;;23.58;49.29
61039;BME280;46919;45.816;3.104;2022-07-23T08:45:56;98191.84;;;23.75;50.09
61039;BME280;46919;45.816;3.104;2022-07-23T08:48:24;98187.00;;;24.00;49.12
61039;BME280;46919;45.816;3.104;2022-07-23T08:50:51;98191.19;;;24.25;48.38
61039;BME280;46919;45.816;3.104;2022-07-23T08:53:19;98198.94;;;24.23;49.03
61039;BME280;46919;45.816;3.104;2022-07-23T08:55:46;98193.63;;;24.27;48.39
61039;BME280;46919;45.816;3.104;2022-07-23T08:58:12;98193.66;;;24.13;48.48
61039;BME280;46919;45.816;3.104;2022-07-23T09:00:38;98193.22;;;24.05;48.31
61039;BME280;46919;45.816;3.104;2022-07-23T09:03:03;98199.66;;;24.01;48.80
61039;BME280;46919;45.816;3.104;2022-07-23T09:05:29;98200.41;;;24.07;49.31
61039;BME280;46919;45.816;3.104;2022-07-23T09:08:10;98199.97;;;23.85;48.83
61039;BME280;46919;45.816;3.104;2022-07-23T09:10:48;98206.31;;;23.86;49.44
61039;BME280;46919;45.816;3.104;2022-07-23T09:13:41;98204.69;;;23.99;49.25
61039;BME280;46919;45.816;3.104;2022-07-23T09:16:30;98213.47;;;24.01;47.99
61039;BME280;46919;45.816;3.104;2022-07-23T09:19:03;98213.16;;;24.02;48.48
61039;BME280;46919;45.816;3.104;2022-07-23T09:21:37;98202.63;;;23.91;48.51
61039;BME280;46919;45.816;3.104;2022-07-23T09:24:05;98209.47;;;23.93;48.50
61039;BME280;46919;45.816;3.104;2022-07-23T09:29:00;98207.22;;;24.09;48.88
61039;BME280;46919;45.816;3.104;2022-07-23T09:31:35;98210.00;;;24.23;48.35
61039;BME280;46919;45.816;3.104;2022-07-23T09:34:27;98207.78;;;24.25;47.52
61039;BME280;46919;45.816;3.104;2022-07-23T09:36:58;98208.78;;;24.29;48.06
61039;BME280;46919;45.816;3.104;2022-07-23T09:39:33;98215.94;;;24.30;47.82
61039;BME280;46919;45.816;3.104;2022-07-23T09:42:18;98211.66;;;24.24;47.78
61039;BME280;46919;45.816;3.104;2022-07-23T09:44:52;98216.34;;;24.37;48.60
61039;BME280;46919;45.816;3.104;2022-07-23T09:47:19;98217.97;;;24.52;47.02
61039;BME280;46919;45.816;3.104;2022-07-23T09:52:30;98220.25;;;24.36;47.86
61039;BME280;46919;45.816;3.104;2022-07-23T09:54:58;98222.47;;;24.34;47.81
61039;BME280;46919;45.816;3.104;2022-07-23T09:57:25;98233.53;;;24.34;48.41
61039;BME280;46919;45.816;3.104;2022-07-23T09:59:52;98236.19;;;24.26;48.05
61039;BME280;46919;45.816;3.104;2022-07-23T10:02:18;98231.16;;;24.14;48.41
61039;BME280;46919;45.816;3.104;2022-07-23T10:04:44;98233.31;;;24.31;48.14
61039;BME280;46919;45.816;3.104;2022-07-23T10:07:11;98247.94;;;24.45;48.01
61039;BME280;46919;45.816;3.104;2022-07-23T10:09:42;98241.94;;;24.43;47.94
61039;BME280;46919;45.816;3.104;2022-07-23T10:12:13;98245.28;;;24.26;47.18
61039;BME280;46919;45.816;3.104;2022-07-23T10:14:45;98248.16;;;24.21;48.59
61039;BME280;46919;45.816;3.104;2022-07-23T10:17:11;98252.13;;;24.15;48.41
61039;BME280;46919;45.816;3.104;2022-07-23T10:19:37;98255.94;;;24.19;47.67
61039;BME280;46919;45.816;3.104;2022-07-23T10:22:18;98249.28;;;24.20;47.59
61039;BME280;46919;45.816;3.104;2022-07-23T10:24:47;98251.31;;;24.28;48.04
61039;BME280;46919;45.816;3.104;2022-07-23T10:30:06;98251.31;;;24.28;47.26
61039;BME280;46919;45.816;3.104;2022-07-23T10:33:15;98251.53;;;24.46;46.94
61039;BME280;46919;45.816;3.104;2022-07-23T10:38:27;98240.81;;;24.72;46.70
61039;BME280;46919;45.816;3.104;2022-07-23T10:41:02;98241.91;;;24.85;46.65
61039;BME280;46919;45.816;3.104;2022-07-23T10:43:28;98248.84;;;24.96;46.49
61039;BME280;46919;45.816;3.104;2022-07-23T10:45:54;98246.69;;;24.93;45.95
61039;BME280;46919;45.816;3.104;2022-07-23T10:48:25;98239.84;;;24.90;45.52
61039;BME280;46919;45.816;3.104;2022-07-23T10:51:12;98240.06;;;24.80;44.73
61039;BME280;46919;45.816;3.104;2022-07-23T10:59:23;98238.09;;;25.31;44.60
61039;BME280;46919;45.816;3.104;2022-07-23T11:01:50;98239.25;;;25.30;43.96
61039;BME280;46919;45.816;3.104;2022-07-23T11:04:15;98240.50;;;25.46;44.02
61039;BME280;46919;45.816;3.104;2022-07-23T11:09:40;98231.44;;;25.55;42.65
61039;BME280;46919;45.816;3.104;2022-07-23T11:17:25;98222.91;;;26.28;41.94
61039;BME280;46919;45.816;3.104;2022-07-23T11:20:25;98213.03;;;26.44;40.25
61039;BME280;46919;45.816;3.104;2022-07-23T11:22:56;98229.66;;;26.44;41.86
61039;BME280;46919;45.816;3.104;2022-07-23T11:27:50;98213.41;;;26.69;40.74
61039;BME280;46919;45.816;3.104;2022-07-23T11:32:52;98219.00;;;26.78;41.25
61039;BME280;46919;45.816;3.104;2022-07-23T11:37:45;98215.41;;;27.12;40.87
61039;BME280;46919;45.816;3.104;2022-07-23T11:40:13;98220.00;;;27.08;41.32
61039;BME280;46919;45.816;3.104;2022-07-23T11:42:50;98215.09;;;27.22;41.43
61039;BME280;46919;45.816;3.104;2022-07-23T11:45:16;98216.44;;;27.34;40.42
61039;BME280;46919;45.816;3.104;2022-07-23T11:47:41;98212.81;;;27.42;40.86
61039;BME280;46919;45.816;3.104;2022-07-23T11:50:07;98209.91;;;27.38;40.56
61039;BME280;46919;45.816;3.104;2022-07-23T11:52:33;98210.69;;;27.30;40.47
61039;BME280;46919;45.816;3.104;2022-07-23T11:55:04;98215.44;;;27.47;40.82
61039;BME280;46919;45.816;3.104;2022-07-23T11:57:32;98209.41;;;27.54;41.25
61039;BME280;46919;45.816;3.104;2022-07-23T12:00:14;98206.53;;;27.80;39.37
61039;BME280;46919;45.816;3.104;2022-07-23T12:02:42;98207.25;;;27.59;39.88
61039;BME280;46919;45.816;3.104;2022-07-23T12:05:12;98209.41;;;27.45;40.40
61039;BME280;46919;45.816;3.104;2022-07-23T12:07:41;98211.69;;;27.34;40.04
61039;BME280;46919;45.816;3.104;2022-07-23T12:10:16;98207.09;;;27.64;39.92
61039;BME280;46919;45.816;3.104;2022-07-23T12:12:50;98214.53;;;27.99;38.31
61039;BME280;46919;45.816;3.104;2022-07-23T12:15:18;98207.78;;;28.09;39.58
61039;BME280;46919;45.816;3.104;2022-07-23T12:17:46;98204.09;;;28.34;38.42
61039;BME280;46919;45.816;3.104;2022-07-23T12:20:15;98202.91;;;28.44;38.24
61039;BME280;46919;45.816;3.104;2022-07-23T12:22:47;98199.88;;;28.28;39.05
61039;BME280;46919;45.816;3.104;2022-07-23T12:25:18;98193.81;;;28.56;37.78
61039;BME280;46919;45.816;3.104;2022-07-23T12:27:46;98202.72;;;28.41;37.21
61039;BME280;46919;45.816;3.104;2022-07-23T12:30:25;98195.81;;;28.47;36.60
61039;BME280;46919;45.816;3.104;2022-07-23T12:32:54;98190.94;;;28.44;37.54
61039;BME280;46919;45.816;3.104;2022-07-23T12:35:21;98186.34;;;28.99;37.40
61039;BME280;46919;45.816;3.104;2022-07-23T12:37:48;98182.94;;;29.69;36.93
61039;BME280;46919;45.816;3.104;2022-07-23T12:40:24;98179.91;;;30.20;36.21
61039;BME280;46919;45.816;3.104;2022-07-23T12:43:05;98186.56;;;29.69;36.75
61039;BME280;46919;45.816;3.104;2022-07-23T12:45:50;98192.53;;;29.04;37.52
61039;BME280;46919;45.816;3.104;2022-07-23T12:48:20;98195.63;;;28.61;37.89
61039;BME280;46919;45.816;3.104;2022-07-23T12:50:58;98182.69;;;28.56;37.94
61039;BME280;46919;45.816;3.104;2022-07-23T12:53:27;98192.00;;;28.90;38.29
61039;BME280;46919;45.816;3.104;2022-07-23T12:56:04;98176.31;;;29.61;36.47
61039;BME280;46919;45.816;3.104;2022-07-23T12:59:07;98179.44;;;30.05;36.86
61039;BME280;46919;45.816;3.104;2022-07-23T13:01:42;98170.84;;;30.10;35.84
61039;BME280;46919;45.816;3.104;2022-07-23T13:04:28;98173.25;;;29.87;36.08
61039;BME280;46919;45.816;3.104;2022-07-23T13:06:59;98167.06;;;29.69;35.95
61039;BME280;46919;45.816;3.104;2022-07-23T13:09:30;98171.28;;;29.88;35.71
61039;BME280;46919;45.816;3.104;2022-07-23T13:11:56;98172.50;;;29.78;35.63
61039;BME280;46919;45.816;3.104;2022-07-23T13:14:22;98166.19;;;30.14;36.53
61039;BME280;46919;45.816;3.104;2022-07-23T13:16:49;98163.50;;;30.67;35.93
61039;BME280;46919;45.816;3.104;2022-07-23T13:19:16;98161.66;;;30.71;35.50
61039;BME280;46919;45.816;3.104;2022-07-23T13:21:42;98160.13;;;30.74;35.08
61039;BME280;46919;45.816;3.104;2022-07-23T13:24:09;98163.47;;;31.04;34.42
61039;BME280;46919;45.816;3.104;2022-07-23T13:26:35;98154.84;;;30.97;33.98
61039;BME280;46919;45.816;3.104;2022-07-23T13:29:01;98148.53;;;31.13;32.64
61039;BME280;46919;45.816;3.104;2022-07-23T13:31:27;98149.16;;;31.06;32.19
61039;BME280;46919;45.816;3.104;2022-07-23T13:33:52;98151.69;;;31.11;32.80